sensor_id;sensor_type;location;lat;lon;timestamp;temperature;humidity
20349;DHT22;10332;50.208;18.988;2022-08-02T00:00:56;19.10;99.90
20349;DHT22;10332;50.208;18.988;2022-08-02T00:03:23;19.10;99.90
20349;DHT22;10332;50.208;18.988;2022-08-02T00:05:51;19.00;99.90
20349;DHT22;10332;50.208;18.988;2022-08-02T00:08:20;19.00;99.90
20349;DHT22;10332;50.208;18.988;2022-08-02T00:10:48;18.90;99.90
20349;DHT22;10332;50.208;18.988;2022-08-02T00:13:16;18.90;99.90
20349;DHT22;10332;50.208;18.988;2022-08-02T00:15:43;18.90;99.90
20349;DHT22;10332;50.208;18.988;2022-08-02T00:18:10;18.90;99.90
20349;DHT22;10332;50.208;18.988;2022-08-02T00:20:38;18.90;99.90
20349;DHT22;10332;50.208;18.988;2022-08-02T00:23:05;18.90;99.90
20349;DHT22;10332;50.208;18.988;2022-08-02T00:25:33;19.00;99.90
20349;DHT22;10332;50.208;18.988;2022-08-02T00:28:00;19.00;99.90
20349;DHT22;10332;50.208;18.988;2022-08-02T00:30:27;19.00;99.90
20349;DHT22;10332;50.208;18.988;2022-08-02T00:32:55;19.00;99.90
20349;DHT22;10332;50.208;18.988;2022-08-02T00:35:22;19.00;99.90
20349;DHT22;10332;50.208;18.988;2022-08-02T00:37:49;19.00;99.90
20349;DHT22;10332;50.208;18.988;2022-08-02T00:40:20;19.00;99.90
20349;DHT22;10332;50.208;18.988;2022-08-02T00:43:10;19.10;99.90
20349;DHT22;10332;50.208;18.988;2022-08-02T00:45:39;19.10;99.90
20349;DHT22;10332;50.208;18.988;2022-08-02T00:48:27;19.10;99.90
20349;DHT22;10332;50.208;18.988;2022-08-02T00:50:55;19.10;99.90
20349;DHT22;10332;50.208;18.988;2022-08-02T00:53:23;19.20;99.90
20349;DHT22;10332;50.208;18.988;2022-08-02T00:55:51;19.20;99.90
20349;DHT22;10332;50.208;18.988;2022-08-02T00:58:18;19.20;99.90
20349;DHT22;10332;50.208;18.988;2022-08-02T01:00:45;19.20;99.90
20349;DHT22;10332;50.208;18.988;2022-08-02T01:03:13;19.20;99.90
20349;DHT22;10332;50.208;18.988;2022-08-02T01:05:41;19.20;99.90
20349;DHT22;10332;50.208;18.988;2022-08-02T01:08:30;19.20;99.90
20349;DHT22;10332;50.208;18.988;2022-08-02T01:10:58;19.20;99.90
20349;DHT22;10332;50.208;18.988;2022-08-02T01:13:26;19.10;99.90
20349;DHT22;10332;50.208;18.988;2022-08-02T01:16:03;19.10;99.90
20349;DHT22;10332;50.208;18.988;2022-08-02T01:18:40;19.20;99.90
20349;DHT22;10332;50.208;18.988;2022-08-02T01:31:00;19.10;99.90
20349;DHT22;10332;50.208;18.988;2022-08-02T01:33:43;19.00;99.90
20349;DHT22;10332;50.208;18.988;2022-08-02T01:36:17;19.10;99.90
20349;DHT22;10332;50.208;18.988;2022-08-02T01:38:49;19.10;99.90
20349;DHT22;10332;50.208;18.988;2022-08-02T01:41:23;19.00;99.90
20349;DHT22;10332;50.208;18.988;2022-08-02T01:43:56;19.00;99.90
20349;DHT22;10332;50.208;18.988;2022-08-02T01:46:26;19.10;99.90
20349;DHT22;10332;50.208;18.988;2022-08-02T01:48:58;19.00;99.90
20349;DHT22;10332;50.208;18.988;2022-08-02T01:51:28;19.00;99.90
20349;DHT22;10332;50.208;18.988;2022-08-02T01:54:18;19.10;99.90
20349;DHT22;10332;50.208;18.988;2022-08-02T01:56:51;19.10;99.90
20349;DHT22;10332;50.208;18.988;2022-08-02T01:59:22;19.10;99.90
20349;DHT22;10332;50.208;18.988;2022-08-02T02:01:54;19.10;99.90
20349;DHT22;10332;50.208;18.988;2022-08-02T02:04:27;19.10;99.90
20349;DHT22;10332;50.208;18.988;2022-08-02T02:06:56;19.10;99.90
20349;DHT22;10332;50.208;18.988;2022-08-02T02:09:27;19.10;99.90
20349;DHT22;10332;50.208;18.988;2022-08-02T02:11:58;19.10;99.90
20349;DHT22;10332;50.208;18.988;2022-08-02T02:14:41;19.10;99.90
20349;DHT22;10332;50.208;18.988;2022-08-02T02:17:19;19.00;99.90
20349;DHT22;10332;50.208;18.988;2022-08-02T02:20:13;19.00;99.90
20349;DHT22;10332;50.208;18.988;2022-08-02T02:22:44;19.00;99.90
20349;DHT22;10332;50.208;18.988;2022-08-02T02:25:18;19.00;99.90
20349;DHT22;10332;50.208;18.988;2022-08-02T02:28:04;19.00;99.90
20349;DHT22;10332;50.208;18.988;2022-08-02T02:30:38;18.90;99.90
20349;DHT22;10332;50.208;18.988;2022-08-02T02:33:08;18.90;99.90
20349;DHT22;10332;50.208;18.988;2022-08-02T02:35:38;18.90;99.90
20349;DHT22;10332;50.208;18.988;2022-08-02T02:38:11;18.90;99.90
20349;DHT22;10332;50.208;18.988;2022-08-02T02:40:41;18.90;99.90
20349;DHT22;10332;50.208;18.988;2022-08-02T02:43:11;18.90;99.90
20349;DHT22;10332;50.208;18.988;2022-08-02T02:45:41;18.90;99.90
20349;DHT22;10332;50.208;18.988;2022-08-02T02:48:12;19.00;99.90
20349;DHT22;10332;50.208;18.988;2022-08-02T02:50:42;18.90;99.90
20349;DHT22;10332;50.208;18.988;2022-08-02T02:53:11;19.00;99.90
20349;DHT22;10332;50.208;18.988;2022-08-02T02:55:43;19.00;99.90
20349;DHT22;10332;50.208;18.988;2022-08-02T02:58:29;18.90;99.90
20349;DHT22;10332;50.208;18.988;2022-08-02T03:00:58;18.90;99.90
20349;DHT22;10332;50.208;18.988;2022-08-02T03:03:45;18.90;99.90
20349;DHT22;10332;50.208;18.988;2022-08-02T03:06:14;18.90;99.90
20349;DHT22;10332;50.208;18.988;2022-08-02T03:08:42;18.90;99.90
20349;DHT22;10332;50.208;18.988;2022-08-02T03:11:10;18.90;99.90
20349;DHT22;10332;50.208;18.988;2022-08-02T03:13:39;18.90;99.90
20349;DHT22;10332;50.208;18.988;2022-08-02T03:16:06;18.90;99.90
20349;DHT22;10332;50.208;18.988;2022-08-02T03:18:36;18.90;99.90
20349;DHT22;10332;50.208;18.988;2022-08-02T03:21:08;18.90;99.90
20349;DHT22;10332;50.208;18.988;2022-08-02T03:23:41;18.90;99.90
20349;DHT22;10332;50.208;18.988;2022-08-02T03:26:09;18.90;99.90
20349;DHT22;10332;50.208;18.988;2022-08-02T03:28:37;18.90;99.90
20349;DHT22;10332;50.208;18.988;2022-08-02T03:31:04;18.90;99.90
20349;DHT22;10332;50.208;18.988;2022-08-02T03:33:32;18.90;99.90
20349;DHT22;10332;50.208;18.988;2022-08-02T03:36:05;19.00;99.90
20349;DHT22;10332;50.208;18.988;2022-08-02T03:38:40;18.90;99.90
20349;DHT22;10332;50.208;18.988;2022-08-02T03:41:12;18.90;99.90
20349;DHT22;10332;50.208;18.988;2022-08-02T03:43:44;18.90;99.90
20349;DHT22;10332;50.208;18.988;2022-08-02T03:46:16;18.90;99.90
20349;DHT22;10332;50.208;18.988;2022-08-02T03:48:48;18.90;99.90
20349;DHT22;10332;50.208;18.988;2022-08-02T03:51:19;18.90;99.90
20349;DHT22;10332;50.208;18.988;2022-08-02T03:53:47;19.00;99.90
20349;DHT22;10332;50.208;18.988;2022-08-02T03:56:15;18.90;99.90
20349;DHT22;10332;50.208;18.988;2022-08-02T03:58:43;19.00;99.90
20349;DHT22;10332;50.208;18.988;2022-08-02T04:01:15;19.00;99.90
20349;DHT22;10332;50.208;18.988;2022-08-02T04:03:42;19.00;99.90
20349;DHT22;10332;50.208;18.988;2022-08-02T04:06:10;19.00;99.90
20349;DHT22;10332;50.208;18.988;2022-08-02T04:08:37;18.90;99.90
20349;DHT22;10332;50.208;18.988;2022-08-02T04:11:05;18.90;99.90
20349;DHT22;10332;50.208;18.988;2022-08-02T04:13:51;18.90;99.90
20349;DHT22;10332;50.208;18.988;2022-08-02T04:16:29;18.90;99.90
20349;DHT22;10332;50.208;18.988;2022-08-02T04:19:07;18.90;99.90
20349;DHT22;10332;50.208;18.988;2022-08-02T04:21:43;18.90;99.90
20349;DHT22;10332;50.208;18.988;2022-08-02T04:24:30;18.90;99.90
20349;DHT22;10332;50.208;18.988;2022-08-02T04:27:04;18.90;99.90
20349;DHT22;10332;50.208;18.988;2022-08-02T04:29:54;18.90;99.90
20349;DHT22;10332;50.208;18.988;2022-08-02T04:32:24;19.00;99.90
20349;DHT22;10332;50.208;18.988;2022-08-02T04:34:51;19.00;99.90
20349;DHT22;10332;50.208;18.988;2022-08-02T04:37:39;19.10;99.90
20349;DHT22;10332;50.208;18.988;2022-08-02T04:40:28;19.20;99.90
20349;DHT22;10332;50.208;18.988;2022-08-02T04:42:55;19.30;99.90
20349;DHT22;10332;50.208;18.988;2022-08-02T04:45:24;19.30;99.90
20349;DHT22;10332;50.208;18.988;2022-08-02T04:47:52;19.30;99.90
20349;DHT22;10332;50.208;18.988;2022-08-02T04:50:30;19.40;99.90
20349;DHT22;10332;50.208;18.988;2022-08-02T04:52:57;19.40;99.90
20349;DHT22;10332;50.208;18.988;2022-08-02T04:55:24;19.40;99.90
20349;DHT22;10332;50.208;18.988;2022-08-02T04:57:56;19.40;99.90
20349;DHT22;10332;50.208;18.988;2022-08-02T05:00:25;19.40;99.90
20349;DHT22;10332;50.208;18.988;2022-08-02T05:02:55;19.50;99.90
20349;DHT22;10332;50.208;18.988;2022-08-02T05:05:23;19.50;99.90
20349;DHT22;10332;50.208;18.988;2022-08-02T05:07:51;19.60;99.90
20349;DHT22;10332;50.208;18.988;2022-08-02T05:10:19;19.60;99.90
20349;DHT22;10332;50.208;18.988;2022-08-02T05:12:47;19.60;99.90
20349;DHT22;10332;50.208;18.988;2022-08-02T05:15:14;19.60;99.90
20349;DHT22;10332;50.208;18.988;2022-08-02T05:17:45;19.60;99.90
20349;DHT22;10332;50.208;18.988;2022-08-02T05:20:16;19.60;99.90
20349;DHT22;10332;50.208;18.988;2022-08-02T05:22:44;19.60;99.90
20349;DHT22;10332;50.208;18.988;2022-08-02T05:25:12;19.60;99.90
20349;DHT22;10332;50.208;18.988;2022-08-02T05:27:41;19.60;99.90
20349;DHT22;10332;50.208;18.988;2022-08-02T05:30:09;19.60;99.90
20349;DHT22;10332;50.208;18.988;2022-08-02T05:32:48;19.60;99.90
20349;DHT22;10332;50.208;18.988;2022-08-02T05:35:20;19.70;99.90
20349;DHT22;10332;50.208;18.988;2022-08-02T05:37:49;19.70;99.90
20349;DHT22;10332;50.208;18.988;2022-08-02T05:40:18;19.70;99.90
20349;DHT22;10332;50.208;18.988;2022-08-02T05:42:53;19.80;99.90
20349;DHT22;10332;50.208;18.988;2022-08-02T05:45:22;19.80;99.90
20349;DHT22;10332;50.208;18.988;2022-08-02T05:47:50;19.80;99.90
20349;DHT22;10332;50.208;18.988;2022-08-02T05:50:18;19.80;99.90
20349;DHT22;10332;50.208;18.988;2022-08-02T05:52:50;19.70;99.90
20349;DHT22;10332;50.208;18.988;2022-08-02T05:55:28;19.70;99.90
20349;DHT22;10332;50.208;18.988;2022-08-02T05:58:12;19.70;99.90
20349;DHT22;10332;50.208;18.988;2022-08-02T06:01:02;19.80;99.90
20349;DHT22;10332;50.208;18.988;2022-08-02T06:03:36;19.70;99.90
20349;DHT22;10332;50.208;18.988;2022-08-02T06:06:13;19.80;99.90
20349;DHT22;10332;50.208;18.988;2022-08-02T06:08:45;19.80;99.90
20349;DHT22;10332;50.208;18.988;2022-08-02T06:11:20;19.80;99.90
20349;DHT22;10332;50.208;18.988;2022-08-02T06:13:54;19.80;99.90
20349;DHT22;10332;50.208;18.988;2022-08-02T06:16:25;19.80;99.90
20349;DHT22;10332;50.208;18.988;2022-08-02T06:19:00;19.90;99.90
20349;DHT22;10332;50.208;18.988;2022-08-02T06:21:28;19.90;99.90
20349;DHT22;10332;50.208;18.988;2022-08-02T06:24:17;20.10;99.90
20349;DHT22;10332;50.208;18.988;2022-08-02T06:26:48;20.10;99.90
20349;DHT22;10332;50.208;18.988;2022-08-02T06:29:21;20.10;99.90
20349;DHT22;10332;50.208;18.988;2022-08-02T06:31:52;20.20;99.90
20349;DHT22;10332;50.208;18.988;2022-08-02T06:34:19;20.20;99.90
20349;DHT22;10332;50.208;18.988;2022-08-02T06:39:48;20.30;99.90
20349;DHT22;10332;50.208;18.988;2022-08-02T06:42:20;20.30;99.90
20349;DHT22;10332;50.208;18.988;2022-08-02T06:45:12;20.30;99.90
20349;DHT22;10332;50.208;18.988;2022-08-02T06:47:39;20.40;99.90
20349;DHT22;10332;50.208;18.988;2022-08-02T06:50:07;20.50;99.90
20349;DHT22;10332;50.208;18.988;2022-08-02T06:52:35;20.60;99.90
20349;DHT22;10332;50.208;18.988;2022-08-02T06:55:04;20.70;99.90
20349;DHT22;10332;50.208;18.988;2022-08-02T06:57:32;20.80;99.90
20349;DHT22;10332;50.208;18.988;2022-08-02T07:00:01;20.80;99.90
20349;DHT22;10332;50.208;18.988;2022-08-02T07:02:37;20.90;99.90
20349;DHT22;10332;50.208;18.988;2022-08-02T07:05:06;20.90;99.90
20349;DHT22;10332;50.208;18.988;2022-08-02T07:07:35;21.00;99.90
20349;DHT22;10332;50.208;18.988;2022-08-02T07:10:03;21.00;99.90
20349;DHT22;10332;50.208;18.988;2022-08-02T07:12:32;21.00;99.90
20349;DHT22;10332;50.208;18.988;2022-08-02T07:15:03;20.90;99.90
20349;DHT22;10332;50.208;18.988;2022-08-02T07:17:33;20.90;99.90
20349;DHT22;10332;50.208;18.988;2022-08-02T07:20:01;20.80;99.90
20349;DHT22;10332;50.208;18.988;2022-08-02T07:22:29;20.70;99.90
20349;DHT22;10332;50.208;18.988;2022-08-02T07:24:58;20.70;99.90
20349;DHT22;10332;50.208;18.988;2022-08-02T07:27:26;20.80;99.90
20349;DHT22;10332;50.208;18.988;2022-08-02T07:29:54;20.90;99.90
20349;DHT22;10332;50.208;18.988;2022-08-02T07:32:26;21.00;99.90
20349;DHT22;10332;50.208;18.988;2022-08-02T07:34:56;21.10;99.90
20349;DHT22;10332;50.208;18.988;2022-08-02T07:37:26;21.40;99.90
20349;DHT22;10332;50.208;18.988;2022-08-02T07:40:16;21.60;99.90
20349;DHT22;10332;50.208;18.988;2022-08-02T07:42:52;21.80;99.90
20349;DHT22;10332;50.208;18.988;2022-08-02T07:45:28;22.10;99.90
20349;DHT22;10332;50.208;18.988;2022-08-02T07:47:57;22.30;99.90
20349;DHT22;10332;50.208;18.988;2022-08-02T07:50:24;22.30;99.90
20349;DHT22;10332;50.208;18.988;2022-08-02T07:52:54;22.20;99.90
20349;DHT22;10332;50.208;18.988;2022-08-02T07:55:24;22.10;99.90
20349;DHT22;10332;50.208;18.988;2022-08-02T07:58:08;22.00;99.90
20349;DHT22;10332;50.208;18.988;2022-08-02T08:00:38;22.10;99.90
20349;DHT22;10332;50.208;18.988;2022-08-02T08:03:05;22.10;99.90
20349;DHT22;10332;50.208;18.988;2022-08-02T08:05:32;22.10;99.90
20349;DHT22;10332;50.208;18.988;2022-08-02T08:07:59;22.10;99.90
20349;DHT22;10332;50.208;18.988;2022-08-02T08:10:27;22.10;99.90
20349;DHT22;10332;50.208;18.988;2022-08-02T08:12:54;22.20;99.90
20349;DHT22;10332;50.208;18.988;2022-08-02T08:15:23;22.40;99.90
20349;DHT22;10332;50.208;18.988;2022-08-02T08:17:50;23.20;99.90
20349;DHT22;10332;50.208;18.988;2022-08-02T08:20:17;23.90;99.90
20349;DHT22;10332;50.208;18.988;2022-08-02T08:22:45;24.40;99.20
20349;DHT22;10332;50.208;18.988;2022-08-02T08:25:13;24.60;98.20
20349;DHT22;10332;50.208;18.988;2022-08-02T08:27:51;24.90;96.40
20349;DHT22;10332;50.208;18.988;2022-08-02T08:30:19;25.20;95.80
20349;DHT22;10332;50.208;18.988;2022-08-02T08:32:48;25.50;95.00
20349;DHT22;10332;50.208;18.988;2022-08-02T08:35:15;25.80;94.60
20349;DHT22;10332;50.208;18.988;2022-08-02T08:37:43;25.90;93.10
20349;DHT22;10332;50.208;18.988;2022-08-02T08:40:11;26.20;91.90
20349;DHT22;10332;50.208;18.988;2022-08-02T08:42:45;25.90;91.50
20349;DHT22;10332;50.208;18.988;2022-08-02T08:45:13;25.60;91.90
20349;DHT22;10332;50.208;18.988;2022-08-02T08:47:41;25.60;92.10
20349;DHT22;10332;50.208;18.988;2022-08-02T08:50:16;25.80;92.00
20349;DHT22;10332;50.208;18.988;2022-08-02T08:55:30;25.80;91.50
20349;DHT22;10332;50.208;18.988;2022-08-02T08:58:01;25.80;91.90
20349;DHT22;10332;50.208;18.988;2022-08-02T09:00:31;25.80;92.00
20349;DHT22;10332;50.208;18.988;2022-08-02T09:03:04;25.60;91.80
20349;DHT22;10332;50.208;18.988;2022-08-02T09:05:39;25.90;92.20
20349;DHT22;10332;50.208;18.988;2022-08-02T09:08:12;26.20;91.10
20349;DHT22;10332;50.208;18.988;2022-08-02T09:10:44;26.60;90.70
20349;DHT22;10332;50.208;18.988;2022-08-02T09:13:19;27.00;88.30
20349;DHT22;10332;50.208;18.988;2022-08-02T09:16:09;27.70;85.10
20349;DHT22;10332;50.208;18.988;2022-08-02T09:18:44;28.20;80.50
20349;DHT22;10332;50.208;18.988;2022-08-02T09:21:14;28.00;80.30
20349;DHT22;10332;50.208;18.988;2022-08-02T09:23:50;27.50;79.30
20349;DHT22;10332;50.208;18.988;2022-08-02T09:26:20;27.20;80.60
20349;DHT22;10332;50.208;18.988;2022-08-02T09:28:51;27.50;81.00
20349;DHT22;10332;50.208;18.988;2022-08-02T09:31:25;27.90;80.10
20349;DHT22;10332;50.208;18.988;2022-08-02T09:33:58;29.80;76.90
20349;DHT22;10332;50.208;18.988;2022-08-02T09:36:38;32.00;63.40
20349;DHT22;10332;50.208;18.988;2022-08-02T09:39:12;31.90;53.60
20349;DHT22;10332;50.208;18.988;2022-08-02T09:41:43;30.90;53.50
20349;DHT22;10332;50.208;18.988;2022-08-02T09:44:12;29.90;53.70
20349;DHT22;10332;50.208;18.988;2022-08-02T09:46:44;29.20;57.40
20349;DHT22;10332;50.208;18.988;2022-08-02T09:49:13;29.00;59.80
20349;DHT22;10332;50.208;18.988;2022-08-02T09:54:32;29.10;60.10
20349;DHT22;10332;50.208;18.988;2022-08-02T09:57:00;29.60;59.30
20349;DHT22;10332;50.208;18.988;2022-08-02T09:59:28;34.30;49.60
20349;DHT22;10332;50.208;18.988;2022-08-02T10:01:57;40.20;15.10
20349;DHT22;10332;50.208;18.988;2022-08-02T10:04:31;43.20;1.00
20349;DHT22;10332;50.208;18.988;2022-08-02T10:07:00;43.10;1.00
20349;DHT22;10332;50.208;18.988;2022-08-02T10:09:31;41.40;1.00
20349;DHT22;10332;50.208;18.988;2022-08-02T10:11:59;41.50;1.00
20349;DHT22;10332;50.208;18.988;2022-08-02T10:14:32;39.60;1.00
20349;DHT22;10332;50.208;18.988;2022-08-02T10:17:00;38.90;1.00
20349;DHT22;10332;50.208;18.988;2022-08-02T10:19:30;41.50;1.00
20349;DHT22;10332;50.208;18.988;2022-08-02T10:22:18;43.00;1.00
20349;DHT22;10332;50.208;18.988;2022-08-02T10:24:48;42.40;1.00
20349;DHT22;10332;50.208;18.988;2022-08-02T10:27:18;40.40;1.00
20349;DHT22;10332;50.208;18.988;2022-08-02T10:29:49;38.30;1.00
20349;DHT22;10332;50.208;18.988;2022-08-02T10:32:58;36.60;1.00
20349;DHT22;10332;50.208;18.988;2022-08-02T10:35:22;35.30;1.00
20349;DHT22;10332;50.208;18.988;2022-08-02T10:38:00;34.60;1.00
20349;DHT22;10332;50.208;18.988;2022-08-02T10:43:39;34.60;1.00
20349;DHT22;10332;50.208;18.988;2022-08-02T10:46:36;34.30;1.00
20349;DHT22;10332;50.208;18.988;2022-08-02T10:49:13;38.70;1.00
20349;DHT22;10332;50.208;18.988;2022-08-02T10:52:04;38.20;1.00
20349;DHT22;10332;50.208;18.988;2022-08-02T10:54:40;37.30;1.00
20349;DHT22;10332;50.208;18.988;2022-08-02T10:57:18;37.60;1.00
20349;DHT22;10332;50.208;18.988;2022-08-02T11:02:44;37.10;1.00
20349;DHT22;10332;50.208;18.988;2022-08-02T11:05:28;36.90;1.00
20349;DHT22;10332;50.208;18.988;2022-08-02T11:08:20;36.60;1.00
20349;DHT22;10332;50.208;18.988;2022-08-02T11:10:48;36.10;1.00
20349;DHT22;10332;50.208;18.988;2022-08-02T11:13:17;35.70;1.00
20349;DHT22;10332;50.208;18.988;2022-08-02T11:21:27;34.80;1.00
20349;DHT22;10332;50.208;18.988;2022-08-02T11:24:24;34.70;1.00
20349;DHT22;10332;50.208;18.988;2022-08-02T11:26:54;34.70;1.00
20349;DHT22;10332;50.208;18.988;2022-08-02T11:29:40;34.60;1.00
20349;DHT22;10332;50.208;18.988;2022-08-02T11:32:20;34.50;1.00
20349;DHT22;10332;50.208;18.988;2022-08-02T11:34:57;34.40;1.00
20349;DHT22;10332;50.208;18.988;2022-08-02T11:37:31;34.20;1.00
20349;DHT22;10332;50.208;18.988;2022-08-02T11:40:03;34.00;1.00
20349;DHT22;10332;50.208;18.988;2022-08-02T11:42:41;33.70;1.00
20349;DHT22;10332;50.208;18.988;2022-08-02T11:45:12;33.40;1.00
20349;DHT22;10332;50.208;18.988;2022-08-02T11:47:52;33.20;1.00
20349;DHT22;10332;50.208;18.988;2022-08-02T11:50:21;33.10;1.00
20349;DHT22;10332;50.208;18.988;2022-08-02T11:52:56;33.10;1.00
20349;DHT22;10332;50.208;18.988;2022-08-02T11:55:28;33.00;1.00
20349;DHT22;10332;50.208;18.988;2022-08-02T11:57:59;32.80;1.00
20349;DHT22;10332;50.208;18.988;2022-08-02T12:00:31;32.30;1.00
20349;DHT22;10332;50.208;18.988;2022-08-02T12:02:58;31.80;1.00
20349;DHT22;10332;50.208;18.988;2022-08-02T12:05:26;31.40;1.00
20349;DHT22;10332;50.208;18.988;2022-08-02T12:08:14;31.20;1.00
20349;DHT22;10332;50.208;18.988;2022-08-02T12:10:48;31.10;1.00
20349;DHT22;10332;50.208;18.988;2022-08-02T12:13:16;31.30;1.00
20349;DHT22;10332;50.208;18.988;2022-08-02T12:15:45;31.60;1.00
20349;DHT22;10332;50.208;18.988;2022-08-02T12:18:21;31.90;1.20
20349;DHT22;10332;50.208;18.988;2022-08-02T12:21:22;32.00;1.00
20349;DHT22;10332;50.208;18.988;2022-08-02T12:23:53;32.00;1.50
20349;DHT22;10332;50.208;18.988;2022-08-02T12:26:28;31.90;1.30
20349;DHT22;10332;50.208;18.988;2022-08-02T12:28:57;32.00;1.10
20349;DHT22;10332;50.208;18.988;2022-08-02T12:31:46;31.90;1.00
20349;DHT22;10332;50.208;18.988;2022-08-02T12:34:26;31.90;1.00
20349;DHT22;10332;50.208;18.988;2022-08-02T12:39:39;31.70;1.00
20349;DHT22;10332;50.208;18.988;2022-08-02T12:42:12;31.70;1.00
20349;DHT22;10332;50.208;18.988;2022-08-02T12:44:54;31.50;1.00
20349;DHT22;10332;50.208;18.988;2022-08-02T12:47:25;31.30;1.20
20349;DHT22;10332;50.208;18.988;2022-08-02T12:52:38;31.90;1.40
20349;DHT22;10332;50.208;18.988;2022-08-02T12:55:18;32.30;1.10
20349;DHT22;10332;50.208;18.988;2022-08-02T12:57:59;32.60;1.00
20349;DHT22;10332;50.208;18.988;2022-08-02T13:00:30;32.70;1.00
20349;DHT22;10332;50.208;18.988;2022-08-02T13:03:00;32.80;1.00
20349;DHT22;10332;50.208;18.988;2022-08-02T13:05:28;33.00;1.00
20349;DHT22;10332;50.208;18.988;2022-08-02T13:08:16;33.00;1.00
20349;DHT22;10332;50.208;18.988;2022-08-02T13:10:44;33.10;1.00
20349;DHT22;10332;50.208;18.988;2022-08-02T13:13:11;32.90;1.00
20349;DHT22;10332;50.208;18.988;2022-08-02T13:15:39;32.60;1.00
20349;DHT22;10332;50.208;18.988;2022-08-02T13:18:16;32.40;1.00
20349;DHT22;10332;50.208;18.988;2022-08-02T13:20:44;32.40;1.00
20349;DHT22;10332;50.208;18.988;2022-08-02T13:23:13;32.40;1.00
20349;DHT22;10332;50.208;18.988;2022-08-02T13:25:48;32.20;1.00
20349;DHT22;10332;50.208;18.988;2022-08-02T13:28:19;32.20;1.00
20349;DHT22;10332;50.208;18.988;2022-08-02T13:30:47;32.30;1.00
20349;DHT22;10332;50.208;18.988;2022-08-02T13:33:16;32.30;1.00
20349;DHT22;10332;50.208;18.988;2022-08-02T13:35:45;32.30;1.00
20349;DHT22;10332;50.208;18.988;2022-08-02T13:38:13;32.20;1.00
20349;DHT22;10332;50.208;18.988;2022-08-02T13:40:40;32.20;1.00
20349;DHT22;10332;50.208;18.988;2022-08-02T13:43:31;32.40;1.00
20349;DHT22;10332;50.208;18.988;2022-08-02T13:46:18;32.40;1.00
20349;DHT22;10332;50.208;18.988;2022-08-02T13:48:55;32.40;1.00
20349;DHT22;10332;50.208;18.988;2022-08-02T13:51:23;32.40;1.00
20349;DHT22;10332;50.208;18.988;2022-08-02T13:53:50;32.40;1.00
20349;DHT22;10332;50.208;18.988;2022-08-02T13:56:17;32.50;1.00
20349;DHT22;10332;50.208;18.988;2022-08-02T13:59:02;32.50;1.00
20349;DHT22;10332;50.208;18.988;2022-08-02T14:01:51;32.50;1.00
20349;DHT22;10332;50.208;18.988;2022-08-02T14:04:20;32.60;1.00
20349;DHT22;10332;50.208;18.988;2022-08-02T14:06:48;32.40;1.00
20349;DHT22;10332;50.208;18.988;2022-08-02T14:09:16;32.10;1.00
20349;DHT22;10332;50.208;18.988;2022-08-02T14:11:44;32.00;1.00
20349;DHT22;10332;50.208;18.988;2022-08-02T14:14:12;31.80;1.00
20349;DHT22;10332;50.208;18.988;2022-08-02T14:16:45;31.70;1.00
20349;DHT22;10332;50.208;18.988;2022-08-02T14:19:13;31.70;1.00
20349;DHT22;10332;50.208;18.988;2022-08-02T14:21:46;31.50;1.00
20349;DHT22;10332;50.208;18.988;2022-08-02T14:24:19;31.50;1.00
20349;DHT22;10332;50.208;18.988;2022-08-02T14:26:48;31.50;1.30
20349;DHT22;10332;50.208;18.988;2022-08-02T14:29:16;31.50;1.00
20349;DHT22;10332;50.208;18.988;2022-08-02T14:31:43;31.60;1.40
20349;DHT22;10332;50.208;18.988;2022-08-02T14:34:12;31.70;1.90
20349;DHT22;10332;50.208;18.988;2022-08-02T14:36:40;31.70;2.10
20349;DHT22;10332;50.208;18.988;2022-08-02T14:39:08;31.60;2.10
20349;DHT22;10332;50.208;18.988;2022-08-02T14:41:35;31.60;1.80
20349;DHT22;10332;50.208;18.988;2022-08-02T14:44:23;31.60;1.80
20349;DHT22;10332;50.208;18.988;2022-08-02T14:46:50;31.50;2.20
20349;DHT22;10332;50.208;18.988;2022-08-02T14:49:19;31.40;1.40
20349;DHT22;10332;50.208;18.988;2022-08-02T14:51:53;31.20;1.40
20349;DHT22;10332;50.208;18.988;2022-08-02T14:54:21;31.10;1.50
20349;DHT22;10332;50.208;18.988;2022-08-02T14:56:58;30.80;1.70
20349;DHT22;10332;50.208;18.988;2022-08-02T14:59:27;30.70;1.40
20349;DHT22;10332;50.208;18.988;2022-08-02T15:01:55;30.50;1.80
20349;DHT22;10332;50.208;18.988;2022-08-02T15:04:23;30.40;2.20
20349;DHT22;10332;50.208;18.988;2022-08-02T15:06:52;30.20;2.90
20349;DHT22;10332;50.208;18.988;2022-08-02T15:09:20;30.20;3.50
20349;DHT22;10332;50.208;18.988;2022-08-02T15:11:48;30.20;3.60
20349;DHT22;10332;50.208;18.988;2022-08-02T15:14:16;30.20;3.70
20349;DHT22;10332;50.208;18.988;2022-08-02T15:16:53;30.10;3.60
20349;DHT22;10332;50.208;18.988;2022-08-02T15:19:27;30.00;3.30
20349;DHT22;10332;50.208;18.988;2022-08-02T15:22:15;29.90;2.60
20349;DHT22;10332;50.208;18.988;2022-08-02T15:24:46;29.80;2.40
20349;DHT22;10332;50.208;18.988;2022-08-02T15:27:15;29.70;2.80
20349;DHT22;10332;50.208;18.988;2022-08-02T15:29:44;29.70;3.50
20349;DHT22;10332;50.208;18.988;2022-08-02T15:32:13;29.70;3.70
20349;DHT22;10332;50.208;18.988;2022-08-02T15:34:45;29.60;3.80
20349;DHT22;10332;50.208;18.988;2022-08-02T15:37:13;29.50;4.20
20349;DHT22;10332;50.208;18.988;2022-08-02T15:39:40;29.50;4.10
20349;DHT22;10332;50.208;18.988;2022-08-02T15:42:08;29.40;3.90
20349;DHT22;10332;50.208;18.988;2022-08-02T15:44:36;29.40;4.30
20349;DHT22;10332;50.208;18.988;2022-08-02T15:47:07;29.30;4.80
20349;DHT22;10332;50.208;18.988;2022-08-02T15:49:34;29.30;4.70
20349;DHT22;10332;50.208;18.988;2022-08-02T15:52:07;29.30;4.70
20349;DHT22;10332;50.208;18.988;2022-08-02T15:54:35;29.40;5.20
20349;DHT22;10332;50.208;18.988;2022-08-02T15:57:03;29.40;5.70
20349;DHT22;10332;50.208;18.988;2022-08-02T15:59:30;29.30;6.00
20349;DHT22;10332;50.208;18.988;2022-08-02T16:01:58;29.40;6.50
20349;DHT22;10332;50.208;18.988;2022-08-02T16:04:25;29.40;7.30
20349;DHT22;10332;50.208;18.988;2022-08-02T16:06:52;29.30;7.80
20349;DHT22;10332;50.208;18.988;2022-08-02T16:09:20;29.20;6.80
20349;DHT22;10332;50.208;18.988;2022-08-02T16:11:47;29.10;5.60
20349;DHT22;10332;50.208;18.988;2022-08-02T16:14:15;28.90;5.70
20349;DHT22;10332;50.208;18.988;2022-08-02T16:16:42;28.80;6.00
20349;DHT22;10332;50.208;18.988;2022-08-02T16:19:10;28.60;6.40
20349;DHT22;10332;50.208;18.988;2022-08-02T16:21:58;28.50;7.30
20349;DHT22;10332;50.208;18.988;2022-08-02T16:24:25;28.40;8.50
20349;DHT22;10332;50.208;18.988;2022-08-02T16:26:52;28.30;9.30
20349;DHT22;10332;50.208;18.988;2022-08-02T16:29:20;28.10;10.00